METAR AND TAF INFORMATION
METAR FOR GVBA
ADDS - METARS form results

(2131 UTC 20 February 2020)
Data provider http://aviationweather.gov/metar/data/
 
Forecast for: GVBA (RABIL AIRPORT , CV)
Text: TAF GVBA 201100Z 2012/2118 03018KT 9000 FEW014
Forecast period: 1200 UTC 20 February 2020 to 1800 UTC 21 February 2020
Forecast type: FROM: standard forecast or significant change
Winds: from the NNE (30 degrees) at 21 MPH (18 knots; 9.3 m/s)
Visibility: 6 miles (9 km)
Ceiling: at least 12,000 feet AGL
Clouds: few clouds at 1400 feet AGL
Weather: no significant weather forecast for this period

 AIRPORT MAP

 RUNWAY INFORMATION
Runway 03 Runway length 4007 ft Runway width 98 ft
Runway elevation 69 ft Runway displaced threshold 0 ft Runway heading 16
Runway 21 Runway length 4007 ft Runway width 98 ft
Runway elevation 69 ft Runway displaced threshold 0 ft Runway heading 196

 AIRPORT FREQUENCIES

 AIRPORT NEAR NAVIGATION AIDS
Type NDB Name Rabil Frequency 341 KHZ



Powered by Virtual Airlines Manager [v2.6.2]